createdAt,value
2018-05-07T00:01:33.218Z,101094.78
2018-05-07T00:04:01.482Z,101097.22
2018-05-07T00:06:28.931Z,101097.50
2018-05-07T00:08:56.352Z,101097.05
2018-05-07T00:11:23.789Z,101101.33
2018-05-07T00:13:51.306Z,101102.05
2018-05-07T00:16:18.699Z,101096.83
2018-05-07T00:18:46.137Z,101094.78
2018-05-07T00:21:13.588Z,101090.91
2018-05-07T00:23:41.026Z,101094.33
2018-05-07T00:31:54.418Z,101097.98
2018-05-07T00:34:21.902Z,101096.80
2018-05-07T00:36:49.333Z,101099.66
2018-05-07T00:39:16.825Z,101098.89
2018-05-07T00:41:44.249Z,101091.66
2018-05-07T00:44:11.718Z,101093.58
2018-05-07T00:46:39.161Z,101095.53
2018-05-07T00:49:06.645Z,101100.55
2018-05-07T00:51:34.088Z,101096.09
2018-05-07T00:54:01.578Z,101091.45
2018-05-07T00:56:29.009Z,101093.41
2018-05-07T00:58:56.479Z,101091.13
2018-05-07T01:01:23.917Z,101091.41
2018-05-07T01:03:51.360Z,101090.82
2018-05-07T01:09:12.195Z,101092.64
2018-05-07T01:11:39.646Z,101098.57
2018-05-07T01:14:07.104Z,101091.75
2018-05-07T01:16:34.556Z,101089.88
2018-05-07T01:19:02.018Z,101083.95
2018-05-07T01:21:29.477Z,101084.86
2018-05-07T01:23:56.950Z,101079.08
2018-05-07T01:26:24.448Z,101087.68
2018-05-07T01:28:52.034Z,101083.94
2018-05-07T01:31:19.507Z,101092.42
2018-05-07T01:33:46.983Z,101090.36
2018-05-07T01:36:14.427Z,101094.12
2018-05-07T01:38:41.905Z,101091.09
2018-05-07T01:41:09.364Z,101091.81
2018-05-07T01:43:36.802Z,101091.49
2018-05-07T01:46:04.290Z,101093.98
2018-05-07T01:48:31.777Z,101096.22
2018-05-07T01:50:59.222Z,101088.96
2018-05-07T01:53:26.680Z,101098.78
2018-05-07T01:55:54.118Z,101092.45
2018-05-07T01:58:21.600Z,101093.39
2018-05-07T02:00:49.060Z,101098.66
2018-05-07T02:03:16.486Z,101092.67
2018-05-07T02:05:43.913Z,101092.92
2018-05-07T02:08:11.368Z,101093.91
2018-05-07T02:10:38.781Z,101089.34
2018-05-07T02:13:06.243Z,101093.47
2018-05-07T02:15:34.329Z,101091.42
2018-05-07T02:18:01.804Z,101088.55
2018-05-07T02:20:29.261Z,101083.66
2018-05-07T02:22:56.735Z,101090.06
2018-05-07T02:25:24.181Z,101092.33
2018-05-07T02:27:51.718Z,101084.00
2018-05-07T02:30:19.200Z,101087.47
2018-05-07T02:32:46.637Z,101078.87
2018-05-07T02:35:14.120Z,101082.95
2018-05-07T02:37:41.568Z,101075.77
2018-05-07T02:40:09.031Z,101080.23
2018-05-07T02:42:36.464Z,101085.94
2018-05-07T02:45:03.889Z,101081.48
2018-05-07T02:47:31.410Z,101076.85
2018-05-07T02:49:58.847Z,101070.00
2018-05-07T02:52:26.320Z,101069.88
2018-05-07T02:54:53.752Z,101072.60
2018-05-07T02:57:21.209Z,101068.22
2018-05-07T02:59:48.693Z,101072.16
2018-05-07T03:02:16.150Z,101076.17
2018-05-07T03:04:43.598Z,101077.19
2018-05-07T03:07:11.038Z,101070.94
2018-05-07T03:09:38.471Z,101072.98
2018-05-07T03:12:06.007Z,101072.61
2018-05-07T03:14:33.356Z,101068.73
2018-05-07T03:17:00.804Z,101075.99
2018-05-07T03:19:28.282Z,101065.73
2018-05-07T03:21:55.911Z,101069.97
2018-05-07T03:24:23.358Z,101066.66
2018-05-07T03:26:51.000Z,101061.18
2018-05-07T03:29:19.389Z,101060.55
2018-05-07T03:31:46.829Z,101063.12
2018-05-07T03:34:14.279Z,101062.62
2018-05-07T03:36:41.717Z,101056.71
2018-05-07T03:39:09.182Z,101054.48
2018-05-07T03:41:36.612Z,101046.41
2018-05-07T03:44:04.738Z,101048.84
2018-05-07T03:46:32.187Z,101052.16
2018-05-07T03:48:59.657Z,101053.27
2018-05-07T03:51:27.111Z,101064.29
2018-05-07T03:53:54.646Z,101061.23
2018-05-07T03:56:41.437Z,101069.91
2018-05-07T03:59:08.887Z,101063.69
2018-05-07T04:01:36.328Z,101061.05
2018-05-07T04:04:03.759Z,101058.69
2018-05-07T04:06:31.228Z,101051.63
2018-05-07T04:08:58.747Z,101057.00
2018-05-07T04:11:26.205Z,101055.31
2018-05-07T04:13:53.641Z,101054.06
2018-05-07T04:16:32.752Z,101052.41
2018-05-07T04:19:11.961Z,101049.45
2018-05-07T04:21:39.375Z,101048.77
2018-05-07T04:24:06.822Z,101042.86
2018-05-07T04:26:34.300Z,101042.02
2018-05-07T04:29:01.734Z,101048.64
2018-05-07T04:31:29.170Z,101046.90
2018-05-07T04:33:56.605Z,101049.75
2018-05-07T04:36:24.082Z,101046.94
2018-05-07T04:38:51.617Z,101052.71
2018-05-07T04:41:19.081Z,101056.95
2018-05-07T04:43:47.614Z,101052.38
2018-05-07T04:46:15.082Z,101047.59
2018-05-07T04:48:42.584Z,101046.77
2018-05-07T04:51:10.041Z,101044.45
2018-05-07T04:53:37.510Z,101047.41
2018-05-07T04:56:04.956Z,101046.22
2018-05-07T04:58:32.416Z,101043.28
2018-05-07T05:00:59.842Z,101049.70
2018-05-07T05:03:27.278Z,101046.59
2018-05-07T05:05:54.736Z,101048.97
2018-05-07T05:08:22.191Z,101045.92
2018-05-07T05:10:49.636Z,101041.16
2018-05-07T05:13:17.063Z,101049.64
2018-05-07T05:15:44.515Z,101051.66
2018-05-07T05:18:11.962Z,101055.89
2018-05-07T05:20:39.394Z,101057.45
2018-05-07T05:23:06.880Z,101059.69
2018-05-07T05:25:34.334Z,101050.11
2018-05-07T05:28:01.796Z,101057.32
2018-05-07T05:30:29.247Z,101059.52
2018-05-07T05:32:56.714Z,101052.01
2018-05-07T05:35:24.193Z,101058.62
2018-05-07T05:37:51.736Z,101058.26
2018-05-07T05:40:19.196Z,101061.67
2018-05-07T05:42:46.748Z,101062.05
2018-05-07T05:45:14.237Z,101065.77
2018-05-07T05:47:41.695Z,101062.34
2018-05-07T05:50:09.458Z,101066.13
2018-05-07T05:52:36.854Z,101057.49
2018-05-07T05:55:05.075Z,101058.86
2018-05-07T05:57:32.695Z,101060.23
2018-05-07T06:00:00.331Z,101057.09
2018-05-07T06:02:27.790Z,101061.27
2018-05-07T06:04:55.223Z,101059.80
2018-05-07T06:07:22.681Z,101058.42
2018-05-07T06:09:50.120Z,101063.92
2018-05-07T06:12:17.627Z,101056.50
2018-05-07T06:14:45.310Z,101052.62
2018-05-07T06:17:12.762Z,101054.02
2018-05-07T06:19:40.282Z,101045.22
2018-05-07T06:22:09.422Z,101049.38
2018-05-07T06:24:36.874Z,101052.41
2018-05-07T06:27:04.328Z,101051.44
2018-05-07T06:29:31.826Z,101039.02
2018-05-07T06:31:59.269Z,101041.71
2018-05-07T06:34:26.711Z,101039.84
2018-05-07T06:36:54.252Z,101039.29
2018-05-07T06:39:21.928Z,101038.69
2018-05-07T06:41:49.361Z,101036.52
2018-05-07T06:44:16.830Z,101041.36
2018-05-07T06:46:44.309Z,101043.32
2018-05-07T06:49:11.715Z,101042.29
2018-05-07T06:51:39.159Z,101048.39
2018-05-07T06:54:06.607Z,101042.16
2018-05-07T06:56:34.044Z,101051.70
2018-05-07T06:59:01.491Z,101044.81
2018-05-07T07:01:28.959Z,101049.49
2018-05-07T07:03:56.455Z,101042.92
2018-05-07T07:06:29.015Z,101044.37
2018-05-07T07:08:56.452Z,101029.83
2018-05-07T07:11:23.935Z,101022.28
2018-05-07T07:13:51.450Z,101029.41
2018-05-07T07:16:19.002Z,101023.70
2018-05-07T07:18:46.411Z,101023.14
2018-05-07T07:21:13.943Z,101025.36
2018-05-07T07:23:41.400Z,101023.52
2018-05-07T07:26:08.862Z,101013.83
2018-05-07T07:28:36.318Z,101018.14
2018-05-07T07:31:03.809Z,101023.61
2018-05-07T07:33:31.342Z,101019.64
2018-05-07T07:35:58.848Z,101020.50
2018-05-07T07:38:26.329Z,101019.34
2018-05-07T07:40:53.821Z,101023.02
2018-05-07T07:43:21.253Z,101021.33
2018-05-07T07:45:48.724Z,101026.89
2018-05-07T07:48:16.154Z,101021.62
2018-05-07T07:50:43.632Z,101028.35
2018-05-07T07:53:11.093Z,101024.78
2018-05-07T07:55:38.550Z,101024.41
2018-05-07T07:58:06.010Z,101023.51
2018-05-07T08:00:33.481Z,101026.77
2018-05-07T08:03:00.978Z,101024.42
2018-05-07T08:05:28.491Z,101013.50
2018-05-07T08:07:55.941Z,101017.23
2018-05-07T08:10:23.402Z,101016.82
2018-05-07T08:12:51.573Z,101016.27
2018-05-07T08:15:19.032Z,101013.39
2018-05-07T08:17:46.490Z,101015.70
2018-05-07T08:20:13.954Z,101007.33
2018-05-07T08:22:41.517Z,101018.52
2018-05-07T08:25:08.956Z,101016.98
2018-05-07T08:27:36.419Z,101011.36
2018-05-07T08:30:03.888Z,101011.38
2018-05-07T08:32:31.379Z,101008.44
2018-05-07T08:34:58.845Z,100999.17
2018-05-07T08:37:50.002Z,101007.55
2018-05-07T08:40:17.463Z,100997.97
2018-05-07T08:42:44.901Z,101010.19
2018-05-07T08:45:12.409Z,101005.91
2018-05-07T08:47:39.906Z,101005.66
2018-05-07T08:50:07.411Z,100999.70
2018-05-07T08:52:34.953Z,101002.00
2018-05-07T08:55:02.485Z,100988.36
2018-05-07T08:57:30.037Z,100990.77
2018-05-07T08:59:57.793Z,100990.89
2018-05-07T09:02:25.306Z,100999.67
2018-05-07T09:04:53.440Z,100991.28
2018-05-07T09:07:20.905Z,100981.51
2018-05-07T09:09:48.379Z,100986.44
2018-05-07T09:12:15.917Z,100977.92
2018-05-07T09:14:43.424Z,100981.47
2018-05-07T09:17:10.883Z,100983.99
2018-05-07T09:19:39.272Z,100983.88
2018-05-07T09:22:06.779Z,100984.39
2018-05-07T09:24:34.344Z,100979.45
2018-05-07T09:27:01.817Z,100979.32
2018-05-07T09:29:29.279Z,100973.44
2018-05-07T09:31:58.660Z,100974.20
2018-05-07T09:34:26.204Z,100973.52
2018-05-07T09:37:03.361Z,100974.76
2018-05-07T09:39:30.761Z,100972.02
2018-05-07T09:41:58.243Z,100966.25
2018-05-07T09:44:26.004Z,100959.41
2018-05-07T09:46:53.491Z,100969.73
2018-05-07T09:49:20.951Z,100959.17
2018-05-07T09:51:48.416Z,100962.52
2018-05-07T09:54:15.859Z,100958.91
2018-05-07T09:56:57.297Z,100956.44
2018-05-07T09:59:24.650Z,100961.06
2018-05-07T10:01:52.128Z,100965.48
2018-05-07T10:04:19.582Z,100951.19
2018-05-07T10:06:47.062Z,100953.40
2018-05-07T10:09:14.521Z,100958.23
2018-05-07T10:11:42.013Z,100949.97
2018-05-07T10:14:09.440Z,100946.30
2018-05-07T10:16:36.895Z,100940.39
2018-05-07T10:19:04.346Z,100945.53
2018-05-07T10:21:31.850Z,100940.91
2018-05-07T10:23:59.340Z,100928.91
2018-05-07T10:26:26.800Z,100930.92
2018-05-07T10:28:54.306Z,100925.95
2018-05-07T10:31:21.812Z,100927.31
2018-05-07T10:33:49.254Z,100932.33
2018-05-07T10:36:16.767Z,100919.02
2018-05-07T10:38:44.215Z,100916.05
2018-05-07T10:41:11.745Z,100909.09
2018-05-07T10:43:39.522Z,100905.27
2018-05-07T10:46:06.970Z,100911.87
2018-05-07T10:48:34.429Z,100909.09
2018-05-07T10:51:01.893Z,100897.17
2018-05-07T10:53:29.347Z,100898.00
2018-05-07T10:55:56.843Z,100901.70
2018-05-07T10:58:24.277Z,100892.16
2018-05-07T11:00:52.611Z,100882.09
2018-05-07T11:03:20.097Z,100887.35
2018-05-07T11:05:47.552Z,100882.83
2018-05-07T11:08:15.042Z,100875.73
2018-05-07T11:10:42.495Z,100879.61
2018-05-07T11:13:09.967Z,100881.66
2018-05-07T11:15:37.489Z,100874.47
2018-05-07T11:18:04.999Z,100860.93
2018-05-07T11:20:32.451Z,100863.24
2018-05-07T11:22:59.920Z,100867.95
2018-05-07T11:25:27.416Z,100863.98
2018-05-07T11:27:54.821Z,100860.59
2018-05-07T11:30:22.281Z,100857.25
2018-05-07T11:32:49.755Z,100860.27
2018-05-07T11:35:18.199Z,100852.79
2018-05-07T11:37:45.660Z,100850.44
2018-05-07T11:40:13.413Z,100847.34
2018-05-07T11:42:40.933Z,100847.34
2018-05-07T11:45:08.410Z,100840.42
2018-05-07T11:47:40.856Z,100839.42
2018-05-07T11:50:08.275Z,100838.61
2018-05-07T11:52:35.751Z,100837.31
2018-05-07T11:55:03.219Z,100826.09
2018-05-07T11:57:35.661Z,100826.35
2018-05-07T12:00:03.136Z,100821.91
2018-05-07T12:02:30.673Z,100819.83
2018-05-07T12:04:58.057Z,100820.41
2018-05-07T12:07:25.719Z,100814.19
2018-05-07T12:09:53.195Z,100813.14
2018-05-07T12:12:20.647Z,100807.19
2018-05-07T12:14:48.195Z,100804.16
2018-05-07T12:17:15.761Z,100804.75
2018-05-07T12:19:43.190Z,100802.66
2018-05-07T12:22:10.663Z,100802.20
2018-05-07T12:24:38.486Z,100799.06
2018-05-07T12:27:05.953Z,100789.80
2018-05-07T12:29:33.746Z,100793.72
2018-05-07T12:32:01.219Z,100790.66
2018-05-07T12:34:28.819Z,100786.05
2018-05-07T12:36:56.329Z,100798.02
2018-05-07T12:39:23.447Z,100779.95
2018-05-07T12:41:50.501Z,100785.92
2018-05-07T12:44:17.515Z,100784.27
2018-05-07T12:46:44.738Z,100776.78
2018-05-07T12:49:12.133Z,100779.52
2018-05-07T12:51:39.159Z,100770.56
2018-05-07T12:54:06.231Z,100769.66
2018-05-07T12:56:33.239Z,100766.78
2018-05-07T12:59:00.313Z,100756.41
2018-05-07T13:01:27.534Z,100748.33
2018-05-07T13:03:54.561Z,100764.44
2018-05-07T13:06:21.599Z,100766.25
2018-05-07T13:08:48.631Z,100755.31
2018-05-07T13:11:15.716Z,100744.08
2018-05-07T13:13:42.787Z,100740.39
2018-05-07T13:16:09.881Z,100732.58
2018-05-07T13:18:36.866Z,100738.46
2018-05-07T13:21:03.979Z,100731.02
2018-05-07T13:23:31.043Z,100720.38
2018-05-07T13:25:58.299Z,100715.32
2018-05-07T13:28:25.508Z,100717.27
2018-05-07T13:30:52.527Z,100714.82
2018-05-07T13:33:19.521Z,100715.31
2018-05-07T13:35:46.653Z,100716.09
2018-05-07T13:38:19.097Z,100710.39
2018-05-07T13:40:46.126Z,100701.03
2018-05-07T13:43:13.898Z,100703.97
2018-05-07T13:45:40.937Z,100694.75
2018-05-07T13:48:09.371Z,100699.66
2018-05-07T13:50:36.483Z,100700.00
2018-05-07T13:53:03.518Z,100698.58
2018-05-07T13:55:30.617Z,100693.48
2018-05-07T13:57:57.740Z,100697.19
2018-05-07T14:00:24.758Z,100696.56
2018-05-07T14:02:51.778Z,100692.88
2018-05-07T14:05:18.782Z,100688.02
2018-05-07T14:07:45.850Z,100678.28
2018-05-07T14:10:12.902Z,100681.98
2018-05-07T14:12:39.975Z,100687.58
2018-05-07T14:15:06.990Z,100687.55
2018-05-07T14:20:20.089Z,100684.49
2018-05-07T14:22:47.432Z,100682.97
2018-05-07T14:25:14.466Z,100682.12
2018-05-07T14:30:36.857Z,100671.56
2018-05-07T14:33:04.806Z,100668.84
2018-05-07T14:35:31.969Z,100668.76
2018-05-07T14:37:59.007Z,100662.66
2018-05-07T14:40:26.041Z,100653.28
2018-05-07T14:42:53.047Z,100660.26
2018-05-07T14:45:20.041Z,100652.92
2018-05-07T14:47:47.041Z,100643.27
2018-05-07T14:50:14.105Z,100644.75
2018-05-07T14:52:41.075Z,100642.23
2018-05-07T14:55:08.101Z,100641.45
2018-05-07T14:57:35.187Z,100635.01
2018-05-07T15:00:02.301Z,100638.99
2018-05-07T15:02:29.351Z,100639.03
2018-05-07T15:04:56.340Z,100637.77
2018-05-07T15:07:23.359Z,100632.78
2018-05-07T15:09:50.438Z,100628.97
2018-05-07T15:12:17.729Z,100633.50
2018-05-07T15:14:44.698Z,100633.14
2018-05-07T15:17:11.927Z,100622.74
2018-05-07T15:19:38.940Z,100625.45
2018-05-07T15:22:05.980Z,100618.08
2018-05-07T15:24:38.818Z,100609.35
2018-05-07T15:27:06.825Z,100621.59
2018-05-07T15:29:34.552Z,100620.59
2018-05-07T15:32:01.918Z,100623.10
2018-05-07T15:34:29.370Z,100617.88
2018-05-07T15:36:56.355Z,100620.02
2018-05-07T15:39:23.380Z,100615.78
2018-05-07T15:41:50.698Z,100618.01
2018-05-07T15:44:17.793Z,100613.13
2018-05-07T15:46:44.788Z,100610.69
2018-05-07T15:49:11.815Z,100612.05
2018-05-07T15:51:39.019Z,100610.31
2018-05-07T15:54:06.064Z,100608.31
2018-05-07T15:56:33.087Z,100611.28
2018-05-07T15:59:00.089Z,100606.14
2018-05-07T16:01:27.094Z,100596.63
2018-05-07T16:03:54.073Z,100603.30
2018-05-07T16:06:21.760Z,100600.09
2018-05-07T16:08:48.802Z,100593.27
2018-05-07T16:11:15.820Z,100592.80
2018-05-07T16:13:42.892Z,100592.09
2018-05-07T16:16:09.939Z,100593.73
2018-05-07T16:21:22.507Z,100587.58
2018-05-07T16:23:49.716Z,100590.81
2018-05-07T16:26:16.748Z,100588.66
2018-05-07T16:28:43.747Z,100578.92
2018-05-07T16:31:11.099Z,100573.67
2018-05-07T16:33:38.157Z,100572.06
2018-05-07T16:36:05.202Z,100572.59
2018-05-07T16:38:32.364Z,100575.31
2018-05-07T16:40:59.372Z,100577.91
2018-05-07T16:43:26.586Z,100569.56
2018-05-07T16:45:53.602Z,100564.03
2018-05-07T16:48:21.420Z,100566.31
2018-05-07T16:50:48.427Z,100567.73
2018-05-07T16:53:15.667Z,100567.81
2018-05-07T16:55:42.923Z,100567.81
2018-05-07T16:58:09.941Z,100559.88
2018-05-07T17:00:37.844Z,100556.17
2018-05-07T17:03:04.853Z,100556.77
2018-05-07T17:05:31.908Z,100560.98
2018-05-07T17:07:59.195Z,100556.70
2018-05-07T17:10:26.188Z,100556.48
2018-05-07T17:12:53.498Z,100548.85
2018-05-07T17:15:20.866Z,100553.36
2018-05-07T17:23:12.338Z,100554.58
2018-05-07T17:25:40.529Z,100551.02
2018-05-07T17:30:53.464Z,100542.55
2018-05-07T17:33:20.744Z,100543.03
2018-05-07T17:35:48.935Z,100541.61
2018-05-07T17:41:11.360Z,100535.30
2018-05-07T17:43:38.612Z,100538.94
2018-05-07T17:46:25.294Z,100537.61
2018-05-07T17:48:57.924Z,100542.02
2018-05-07T17:59:41.799Z,100539.27
2018-05-07T18:02:08.894Z,100533.70
2018-05-07T18:04:36.799Z,100530.98
2018-05-07T18:07:04.523Z,100531.27
2018-05-07T18:12:07.714Z,100529.88
2018-05-07T18:17:26.747Z,100526.03
2018-05-07T18:19:53.865Z,100530.65
2018-05-07T18:22:21.124Z,100524.34
2018-05-07T18:24:53.858Z,100527.59
2018-05-07T18:29:55.139Z,100517.14
2018-05-07T18:32:22.240Z,100525.42
2018-05-07T18:34:49.566Z,100522.16
2018-05-07T18:37:17.568Z,100522.11
2018-05-07T18:39:44.887Z,100522.78
2018-05-07T18:42:12.014Z,100524.72
2018-05-07T18:44:40.335Z,100529.15
2018-05-07T18:47:17.425Z,100532.66
2018-05-07T18:49:44.927Z,100523.89
2018-05-07T18:52:12.270Z,100526.97
2018-05-07T18:54:39.966Z,100523.18
2018-05-07T18:57:07.831Z,100523.54
2018-05-07T19:02:09.286Z,100528.25
2018-05-07T19:04:36.430Z,100531.16
2018-05-07T19:07:04.390Z,100535.44
2018-05-07T19:09:31.364Z,100537.94
2018-05-07T19:11:59.550Z,100536.27
2018-05-07T19:14:26.644Z,100533.42
2018-05-07T19:19:45.304Z,100542.27
2018-05-07T19:27:17.025Z,100535.47
2018-05-07T19:29:44.986Z,100537.32
2018-05-07T19:45:45.488Z,100535.84
2018-05-07T19:48:14.749Z,100537.22
2018-05-07T19:53:13.837Z,100530.98
2018-05-07T19:55:41.937Z,100531.73
2018-05-07T19:58:29.889Z,100537.06
2018-05-07T20:03:54.515Z,100536.12
2018-05-07T20:12:12.152Z,100527.97
2018-05-07T20:14:57.339Z,100525.98
2018-05-07T20:22:43.331Z,100519.30
2018-05-07T20:25:11.448Z,100524.49
2018-05-07T20:27:41.145Z,100521.23
2018-05-07T20:43:34.139Z,100524.05
2018-05-07T20:46:02.877Z,100524.55
2018-05-07T20:48:32.948Z,100527.43
2018-05-07T20:51:00.667Z,100528.68
2018-05-07T20:53:28.525Z,100522.87
2018-05-07T20:55:56.285Z,100523.34
2018-05-07T20:58:32.899Z,100525.70
2018-05-07T21:00:59.911Z,100519.66
2018-05-07T21:03:26.886Z,100518.03
2018-05-07T21:05:53.996Z,100512.17
2018-05-07T21:08:21.957Z,100516.62
2018-05-07T21:10:49.739Z,100514.59
2018-05-07T21:13:17.694Z,100519.00
2018-05-07T21:15:48.553Z,100521.50
2018-05-07T21:18:23.023Z,100519.56
2018-05-07T21:23:24.011Z,100522.31
2018-05-07T21:25:51.865Z,100520.31
2018-05-07T21:33:49.685Z,100520.27
2018-05-07T21:36:22.505Z,100517.45
2018-05-07T21:38:56.532Z,100513.69
2018-05-07T21:41:24.694Z,100516.73
2018-05-07T21:43:53.277Z,100518.78
2018-05-07T21:46:20.254Z,100523.61
2018-05-07T21:49:01.685Z,100526.26
2018-05-07T21:51:29.675Z,100522.09
2018-05-07T21:53:59.254Z,100523.73
2018-05-07T21:56:26.931Z,100519.72
2018-05-07T21:58:57.207Z,100520.95
2018-05-07T22:01:26.171Z,100516.61
2018-05-07T22:03:53.861Z,100517.25
2018-05-07T22:06:21.343Z,100521.24
2018-05-07T22:08:58.426Z,100521.73
2018-05-07T22:11:25.903Z,100517.36
2018-05-07T22:13:53.583Z,100522.42
2018-05-07T22:16:23.467Z,100515.70
2018-05-07T22:25:57.851Z,100516.56
2018-05-07T22:31:17.902Z,100514.87
2018-05-07T22:33:48.904Z,100512.50
2018-05-07T22:41:54.057Z,100515.40
2018-05-07T22:44:22.122Z,100519.16
2018-05-07T22:53:08.064Z,100510.37
2018-05-07T23:12:50.244Z,100507.95
2018-05-07T23:17:59.838Z,100517.72
2018-05-07T23:20:28.561Z,100507.38
2018-05-07T23:22:59.598Z,100507.02
2018-05-07T23:25:27.386Z,100513.75
2018-05-07T23:28:00.103Z,100510.66
2018-05-07T23:30:27.665Z,100504.16
2018-05-07T23:32:55.334Z,100504.40
2018-05-07T23:35:23.783Z,100501.64
2018-05-07T23:37:51.239Z,100502.31
2018-05-07T23:40:18.737Z,100499.65
2018-05-07T23:42:47.073Z,100498.91
2018-05-07T23:45:14.513Z,100495.95
2018-05-07T23:47:42.240Z,100493.42
2018-05-07T23:50:09.715Z,100497.63
2018-05-07T23:52:37.211Z,100496.34
2018-05-07T23:55:04.681Z,100490.66
2018-05-07T23:57:32.179Z,100491.25
2018-05-07T23:59:59.673Z,100490.41
